Bribie 1 — BRIBIE1 — position and weather

sailwx.info

Track history (hours):
 
Tides and Currents Weather Stations Pressure Air Temp Water Temp Dewpoint Dewpoint Depression Visibility Wind Speed Wind Dir Waves Ship Positions

Bribie 1

Last reported at 2018-Apr-22 01:33 UTC. Time now 2018-Apr-22 06:38 UTC.
Position S 27°04' E 153°09'.

Length 10 m; draft 1.2 m.

Type: SAR. MMSI: 503027760.

Date/timePositionNaut miles runAvg speedWind from/ knotsBaromVisibWave heightAir tempDewpointWater temp
2018-Apr-22 01:33S 27°04' E 153°09'0 0.0
2018-Apr-22 01:30S 27°04' E 153°09'0 0.0
2018-Apr-22 01:00S 27°04' E 153°09'0 0.0
2018-Apr-22 00:30S 27°04' E 153°09'0 0.0
2018-Apr-21 06:19S 27°04' E 153°09'1 1.9
2018-Apr-21 06:00S 27°04' E 153°08'1 2.5
2018-Apr-21 05:30S 27°03' E 153°09'0 0.1
2018-Apr-21 05:00S 27°03' E 153°09'0 0.1
2018-Apr-21 04:30S 27°03' E 153°09'1 0.1
2018-Apr-20 21:44S 27°04' E 153°09'0 0.0
2018-Apr-20 08:47S 27°04' E 153°09'1 2.2
2018-Apr-20 08:30S 27°04' E 153°08'713.7
2018-Apr-20 08:00S 27°10' E 153°11'1015.4
2018-Apr-20 07:23S 27°11' E 153°22'924.8
2018-Apr-20 07:01S 27°11' E 153°12'7 7.4
2018-Apr-20 06:00S 27°04' E 153°09'3 5.3
2018-Apr-20 05:31S 27°06' E 153°09'612.4
2018-Apr-20 05:00S 27°09' E 153°03'4 7.2
2018-Apr-20 04:30S 27°10' E 153°06'5 8.7
2018-Apr-20 03:59S 27°14' E 153°09'3 6.3
2018-Apr-20 03:31S 27°12' E 153°10'  
2018-Apr-17 12:09S 27°04' E 153°09'0 2.8
2018-Apr-17 12:00S 27°04' E 153°09'815.5
2018-Apr-17 11:30S 27°07' E 153°17'4 7.9
2018-Apr-17 10:57S 27°08' E 153°22'716.6
2018-Apr-17 10:31S 27°06' E 153°14'612.7
2018-Apr-17 10:00S 27°03' E 153°08'510.0
2018-Apr-17 09:30S 26°59' E 153°05'3 6.6
2018-Apr-17 09:00S 27°02' E 153°06'2 4.4
2018-Apr-17 08:30S 27°03' E 153°08'1 0.2
2018-Apr-17 03:56S 27°04' E 153°09'1 1.1
2018-Apr-17 03:23S 27°04' E 153°08'0 0.1
2018-Apr-17 03:00S 27°04' E 153°08'1 2.0
2018-Apr-17 02:30S 27°05' E 153°09'4 8.2
2018-Apr-17 02:00S 27°09' E 153°10'5 9.3
2018-Apr-17 01:30S 27°13' E 153°11'5 9.2
2018-Apr-17 01:00S 27°18' E 153°13'8 8.6
2018-Apr-17 00:08S 27°24' E 153°17'1 8.8
2018-Apr-16 23:59S 27°25' E 153°18'4 8.3
2018-Apr-16 23:27S 27°28' E 153°21'3 5.6
2018-Apr-16 23:00S 27°29' E 153°24'0 0.3
2018-Apr-16 22:30S 27°29' E 153°24'1222.5
2018-Apr-16 21:58S 27°21' E 153°13'1023.0
2018-Apr-16 21:31S 27°11' E 153°11'714.0
2018-Apr-16 20:59S 27°04' E 153°09'0 0.0
2018-Apr-16 02:12S 27°04' E 153°09'0 0.0
2018-Apr-16 02:00S 27°04' E 153°09'0 0.0
2018-Apr-16 01:30S 27°04' E 153°09'1 1.7
2018-Apr-16 01:00S 27°04' E 153°08'1 0.3
2018-Apr-15 22:32S 27°04' E 153°09'0 0.0
2018-Apr-15 22:30S 27°04' E 153°09'0 0.0
2018-Apr-15 06:35S 27°04' E 153°09'0 0.0
2018-Apr-15 06:30S 27°04' E 153°09'0 0.0
2018-Apr-15 06:00S 27°04' E 153°09'0 0.0
2018-Apr-15 05:30S 27°04' E 153°09'0 0.0
2018-Apr-15 05:00S 27°04' E 153°09'0 0.6
2018-Apr-15 04:31S 27°04' E 153°09'0 0.6
2018-Apr-15 04:00S 27°04' E 153°09'0 0.3
2018-Apr-15 03:30S 27°04' E 153°09'1 1.3
2018-Apr-15 03:00S 27°04' E 153°09'0 0.0
2018-Apr-15 02:30S 27°04' E 153°09'0 0.0
2018-Apr-15 02:00S 27°04' E 153°09'0 0.0
2018-Apr-15 01:30S 27°04' E 153°09'0 0.0
2018-Apr-14 22:51S 27°04' E 153°09'0 0.0
2018-Apr-14 22:30S 27°04' E 153°09'0 0.0
2018-Apr-14 22:00S 27°04' E 153°09'0 0.0
2018-Apr-14 21:20S 27°04' E 153°09'0 0.0
2018-Apr-14 06:02S 27°04' E 153°09'0 0.0
2018-Apr-14 04:55S 27°04' E 153°09'0 0.1
2018-Apr-14 04:25S 27°04' E 153°09'0 0.0
2018-Apr-14 00:34S 27°04' E 153°09'0 0.0
2018-Apr-14 00:30S 27°04' E 153°09'0 0.0
2018-Apr-13 22:55S 27°04' E 153°09'0 0.0
2018-Apr-13 22:27S 27°04' E 153°09'0 0.0
2018-Apr-13 22:00S 27°04' E 153°09'0 0.0
2018-Apr-13 21:30S 27°04' E 153°09'0 0.0
2018-Apr-13 05:27S 27°04' E 153°09'2 5.0
2018-Apr-13 05:01S 27°06' E 153°10'3 5.5
2018-Apr-13 04:30S 27°06' E 153°13'5 9.9
2018-Apr-13 04:00S 27°11' E 153°13'7 7.4
2018-Apr-13 03:00S 27°12' E 153°21'1224.9
2018-Apr-13 02:31S 27°06' E 153°10'2 4.5
2018-Apr-13 02:01S 27°04' E 153°09'3 6.9
2018-Apr-13 01:30S 27°06' E 153°12'4 3.0
2018-Apr-13 00:03S 27°06' E 153°17'124.4
2018-Apr-13 00:00S 27°06' E 153°15'  
Track history (hours):
 
Tides and Currents Weather Stations Pressure Air Temp Water Temp Dewpoint Dewpoint Depression Visibility Wind Speed Wind Dir Waves Ship Positions

Bribie 1

Last reported at 2018-Apr-22 01:33 UTC. Time now 2018-Apr-22 06:38 UTC.
Position S 27°04' E 153°09'.

Length 10 m; draft 1.2 m.

Type: SAR. MMSI: 503027760.

Date/timePositionNaut miles runAvg speedWind from/ knotsBaromVisibWave heightAir tempDewpointWater temp
2018-Apr-22 01:33S 27°04' E 153°09'0 0.0
2018-Apr-22 01:30S 27°04' E 153°09'0 0.0
2018-Apr-22 01:00S 27°04' E 153°09'0 0.0
2018-Apr-22 00:30S 27°04' E 153°09'0 0.0
2018-Apr-21 06:19S 27°04' E 153°09'1 1.9
2018-Apr-21 06:00S 27°04' E 153°08'1 2.5
2018-Apr-21 05:30S 27°03' E 153°09'0 0.1
2018-Apr-21 05:00S 27°03' E 153°09'0 0.1
2018-Apr-21 04:30S 27°03' E 153°09'1 0.1
2018-Apr-20 21:44S 27°04' E 153°09'0 0.0
2018-Apr-20 08:47S 27°04' E 153°09'1 2.2
2018-Apr-20 08:30S 27°04' E 153°08'713.7
2018-Apr-20 08:00S 27°10' E 153°11'1015.4
2018-Apr-20 07:23S 27°11' E 153°22'924.8
2018-Apr-20 07:01S 27°11' E 153°12'7 7.4
2018-Apr-20 06:00S 27°04' E 153°09'3 5.3
2018-Apr-20 05:31S 27°06' E 153°09'612.4
2018-Apr-20 05:00S 27°09' E 153°03'4 7.2
2018-Apr-20 04:30S 27°10' E 153°06'5 8.7
2018-Apr-20 03:59S 27°14' E 153°09'3 6.3
2018-Apr-20 03:31S 27°12' E 153°10'  
2018-Apr-17 12:09S 27°04' E 153°09'0 2.8
2018-Apr-17 12:00S 27°04' E 153°09'815.5
2018-Apr-17 11:30S 27°07' E 153°17'4 7.9
2018-Apr-17 10:57S 27°08' E 153°22'716.6
2018-Apr-17 10:31S 27°06' E 153°14'612.7
2018-Apr-17 10:00S 27°03' E 153°08'510.0
2018-Apr-17 09:30S 26°59' E 153°05'3 6.6
2018-Apr-17 09:00S 27°02' E 153°06'2 4.4
2018-Apr-17 08:30S 27°03' E 153°08'1 0.2
2018-Apr-17 03:56S 27°04' E 153°09'1 1.1
2018-Apr-17 03:23S 27°04' E 153°08'0 0.1
2018-Apr-17 03:00S 27°04' E 153°08'1 2.0
2018-Apr-17 02:30S 27°05' E 153°09'4 8.2
2018-Apr-17 02:00S 27°09' E 153°10'5 9.3
2018-Apr-17 01:30S 27°13' E 153°11'5 9.2
2018-Apr-17 01:00S 27°18' E 153°13'8 8.6
2018-Apr-17 00:08S 27°24' E 153°17'1 8.8
2018-Apr-16 23:59S 27°25' E 153°18'4 8.3
2018-Apr-16 23:27S 27°28' E 153°21'3 5.6
2018-Apr-16 23:00S 27°29' E 153°24'0 0.3
2018-Apr-16 22:30S 27°29' E 153°24'1222.5
2018-Apr-16 21:58S 27°21' E 153°13'1023.0
2018-Apr-16 21:31S 27°11' E 153°11'714.0
2018-Apr-16 20:59S 27°04' E 153°09'0 0.0
2018-Apr-16 02:12S 27°04' E 153°09'0 0.0
2018-Apr-16 02:00S 27°04' E 153°09'0 0.0
2018-Apr-16 01:30S 27°04' E 153°09'1 1.7
2018-Apr-16 01:00S 27°04' E 153°08'1 0.3
2018-Apr-15 22:32S 27°04' E 153°09'0 0.0
2018-Apr-15 22:30S 27°04' E 153°09'0 0.0
2018-Apr-15 06:35S 27°04' E 153°09'0 0.0
2018-Apr-15 06:30S 27°04' E 153°09'0 0.0
2018-Apr-15 06:00S 27°04' E 153°09'0 0.0
2018-Apr-15 05:30S 27°04' E 153°09'0 0.0
2018-Apr-15 05:00S 27°04' E 153°09'0 0.6
2018-Apr-15 04:31S 27°04' E 153°09'0 0.6
2018-Apr-15 04:00S 27°04' E 153°09'0 0.3
2018-Apr-15 03:30S 27°04' E 153°09'1 1.3
2018-Apr-15 03:00S 27°04' E 153°09'0 0.0
2018-Apr-15 02:30S 27°04' E 153°09'0 0.0
2018-Apr-15 02:00S 27°04' E 153°09'0 0.0
2018-Apr-15 01:30S 27°04' E 153°09'0 0.0
2018-Apr-14 22:51S 27°04' E 153°09'0 0.0
2018-Apr-14 22:30S 27°04' E 153°09'0 0.0
2018-Apr-14 22:00S 27°04' E 153°09'0 0.0
2018-Apr-14 21:20S 27°04' E 153°09'0 0.0
2018-Apr-14 06:02S 27°04' E 153°09'0 0.0
2018-Apr-14 04:55S 27°04' E 153°09'0 0.1
2018-Apr-14 04:25S 27°04' E 153°09'0 0.0
2018-Apr-14 00:34S 27°04' E 153°09'0 0.0
2018-Apr-14 00:30S 27°04' E 153°09'0 0.0
2018-Apr-13 22:55S 27°04' E 153°09'0 0.0
2018-Apr-13 22:27S 27°04' E 153°09'0 0.0
2018-Apr-13 22:00S 27°04' E 153°09'0 0.0
2018-Apr-13 21:30S 27°04' E 153°09'0 0.0
2018-Apr-13 05:27S 27°04' E 153°09'2 5.0
2018-Apr-13 05:01S 27°06' E 153°10'3 5.5
2018-Apr-13 04:30S 27°06' E 153°13'5 9.9
2018-Apr-13 04:00S 27°11' E 153°13'7 7.4
2018-Apr-13 03:00S 27°12' E 153°21'1224.9
2018-Apr-13 02:31S 27°06' E 153°10'2 4.5
2018-Apr-13 02:01S 27°04' E 153°09'3 6.9
2018-Apr-13 01:30S 27°06' E 153°12'4 3.0
2018-Apr-13 00:03S 27°06' E 153°17'124.4
2018-Apr-13 00:00S 27°06' E 153°15'  

Dump ship's entire track history